createdAt,value
2022-08-09T00:01:15.366Z,101567.00
2022-08-09T00:04:05.564Z,101566.00
2022-08-09T00:06:32.163Z,101565.00
2022-08-09T00:09:01.233Z,101560.00
2022-08-09T00:12:03.854Z,101561.00
2022-08-09T00:14:22.113Z,101561.00
2022-08-09T00:17:04.790Z,101559.00
2022-08-09T00:19:32.407Z,101558.00
2022-08-09T00:22:03.671Z,101563.00
2022-08-09T00:24:32.508Z,101558.00
2022-08-09T00:27:01.329Z,101554.00
2022-08-09T00:30:10.182Z,101558.00
2022-08-09T00:32:26.781Z,101556.00
2022-08-09T00:34:55.720Z,101556.00
2022-08-09T00:37:24.061Z,101553.00
2022-08-09T00:40:09.099Z,101552.00
2022-08-09T00:44:15.691Z,101557.00
2022-08-09T00:45:28.066Z,101543.00
2022-08-09T00:47:55.657Z,101541.00
2022-08-09T00:50:24.537Z,101544.00
2022-08-09T00:52:56.252Z,101542.00
2022-08-09T00:56:03.127Z,101547.00
2022-08-09T00:58:14.503Z,101552.00
2022-08-09T01:00:44.642Z,101558.00
2022-08-09T01:03:28.443Z,101556.00
2022-08-09T01:06:53.309Z,101552.00
2022-08-09T01:09:56.616Z,101555.00
2022-08-09T01:12:45.699Z,101556.00
2022-08-09T01:15:19.916Z,101554.00
2022-08-09T01:18:03.242Z,101551.00
2022-08-09T01:21:17.185Z,101560.00
2022-08-09T01:24:14.688Z,101562.00
2022-08-09T01:27:09.715Z,101557.00
2022-08-09T01:29:59.746Z,101562.00
2022-08-09T01:32:36.994Z,101562.00
2022-08-09T01:35:28.317Z,101568.00
2022-08-09T01:38:15.425Z,101559.00
2022-08-09T01:41:04.766Z,101561.00
2022-08-09T01:43:50.422Z,101562.00
2022-08-09T01:46:36.824Z,101558.00
2022-08-09T01:49:17.594Z,101557.00
2022-08-09T01:51:56.952Z,101559.00
2022-08-09T01:54:32.794Z,101553.00
2022-08-09T01:57:16.858Z,101557.00
2022-08-09T01:59:52.032Z,101553.00
2022-08-09T02:02:32.003Z,101557.00
2022-08-09T02:05:15.114Z,101548.00
2022-08-09T02:08:35.943Z,101553.00
2022-08-09T02:10:55.771Z,101556.00
2022-08-09T02:13:40.436Z,101557.00
2022-08-09T02:16:12.393Z,101552.00
2022-08-09T02:18:42.998Z,101547.00
2022-08-09T02:21:22.168Z,101551.00
2022-08-09T02:24:00.306Z,101558.00
2022-08-09T02:26:34.690Z,101552.00
2022-08-09T02:29:13.080Z,101549.00
2022-08-09T02:31:50.838Z,101552.00
2022-08-09T02:34:40.364Z,101562.00
2022-08-09T02:37:15.582Z,101557.00
2022-08-09T02:39:55.124Z,101554.00
2022-08-09T02:42:35.446Z,101562.00
2022-08-09T02:45:15.474Z,101563.00
2022-08-09T02:47:57.999Z,101562.00
2022-08-09T02:50:42.398Z,101562.00
2022-08-09T02:53:26.648Z,101565.00
2022-08-09T02:55:59.720Z,101563.00
2022-08-09T02:58:36.877Z,101562.00
2022-08-09T03:01:11.139Z,101561.00
2022-08-09T03:04:17.258Z,101569.00
2022-08-09T03:06:33.300Z,101559.00
2022-08-09T03:09:02.386Z,101563.00
2022-08-09T03:12:09.780Z,101565.00
2022-08-09T03:14:22.088Z,101561.00
2022-08-09T03:16:58.637Z,101562.00
2022-08-09T03:19:58.002Z,101560.00
2022-08-09T03:22:24.989Z,101564.00
2022-08-09T03:25:06.266Z,101566.00
2022-08-09T03:27:52.400Z,101558.00
2022-08-09T03:30:29.706Z,101563.00
2022-08-09T03:33:16.963Z,101570.00
2022-08-09T03:36:12.303Z,101568.00
2022-08-09T03:38:42.986Z,101562.00
2022-08-09T03:41:18.470Z,101570.00
2022-08-09T03:44:03.135Z,101571.00
2022-08-09T03:46:36.553Z,101574.00
2022-08-09T03:49:08.214Z,101575.00
2022-08-09T03:51:58.640Z,101567.00
2022-08-09T03:54:32.037Z,101573.00
2022-08-09T03:57:18.163Z,101579.00
2022-08-09T03:59:54.614Z,101576.00
2022-08-09T04:02:28.304Z,101578.00
2022-08-09T04:05:06.767Z,101580.00
2022-08-09T04:07:53.581Z,101588.00
2022-08-09T04:10:29.501Z,101582.00
2022-08-09T04:13:04.105Z,101587.00
2022-08-09T04:16:17.327Z,101592.00
2022-08-09T04:18:21.309Z,101591.00
2022-08-09T04:20:51.269Z,101591.00
2022-08-09T04:23:23.481Z,101588.00
2022-08-09T04:25:53.036Z,101598.00
2022-08-09T04:28:30.818Z,101596.00
2022-08-09T04:31:09.269Z,101604.00
2022-08-09T04:33:52.497Z,101593.00
2022-08-09T04:36:30.277Z,101598.00
2022-08-09T04:39:05.287Z,101595.00
2022-08-09T04:41:43.433Z,101601.00
2022-08-09T04:44:14.732Z,101603.00
2022-08-09T04:46:58.079Z,101616.00
2022-08-09T04:49:53.736Z,101607.00
2022-08-09T04:52:26.240Z,101622.00
2022-08-09T04:54:56.176Z,101613.00
2022-08-09T04:57:25.124Z,101619.00
2022-08-09T04:59:54.772Z,101627.00
2022-08-09T05:02:27.091Z,101625.00
2022-08-09T05:04:56.253Z,101623.00
2022-08-09T05:07:25.158Z,101614.00
2022-08-09T05:09:57.961Z,101623.00
2022-08-09T05:12:31.055Z,101622.00
2022-08-09T05:14:58.840Z,101616.00
2022-08-09T05:18:50.899Z,101616.00
2022-08-09T05:20:15.806Z,101617.00
2022-08-09T05:23:53.702Z,101624.00
2022-08-09T05:25:32.660Z,101616.00
2022-08-09T05:28:00.685Z,101612.00
2022-08-09T05:30:29.934Z,101614.00
2022-08-09T05:33:00.340Z,101614.00
2022-08-09T05:35:30.035Z,101627.00
2022-08-09T05:37:59.772Z,101635.00
2022-08-09T05:40:28.960Z,101626.00
2022-08-09T05:42:57.922Z,101633.00
2022-08-09T05:45:25.967Z,101628.00
2022-08-09T05:48:13.579Z,101633.00
2022-08-09T05:50:51.171Z,101632.00
2022-08-09T05:53:34.006Z,101640.00
2022-08-09T05:56:04.342Z,101646.00
2022-08-09T05:58:32.877Z,101645.00
2022-08-09T06:01:00.657Z,101647.00
2022-08-09T06:03:43.711Z,101654.00
2022-08-09T06:06:14.640Z,101653.00
2022-08-09T06:08:42.520Z,101654.00
2022-08-09T06:11:17.481Z,101661.00
2022-08-09T06:13:47.386Z,101657.00
2022-08-09T06:16:16.339Z,101666.00
2022-08-09T06:18:46.860Z,101669.00
2022-08-09T06:21:16.303Z,101664.00
2022-08-09T06:23:57.843Z,101664.00
2022-08-09T06:26:29.129Z,101665.00
2022-08-09T06:29:00.770Z,101668.00
2022-08-09T06:31:40.633Z,101666.00
2022-08-09T06:34:23.399Z,101674.00
2022-08-09T06:36:57.289Z,101672.00
2022-08-09T06:39:49.338Z,101673.00
2022-08-09T06:42:24.722Z,101674.00
2022-08-09T06:44:59.099Z,101678.00
2022-08-09T06:47:30.217Z,101677.00
2022-08-09T06:50:14.703Z,101676.00
2022-08-09T06:52:48.801Z,101676.00
2022-08-09T06:55:23.167Z,101674.00
2022-08-09T06:58:03.624Z,101677.00
2022-08-09T07:00:55.528Z,101667.00
2022-08-09T07:03:28.050Z,101680.00
2022-08-09T07:06:04.740Z,101679.00
2022-08-09T07:08:37.112Z,101680.00
2022-08-09T07:11:08.359Z,101680.00
2022-08-09T07:13:45.170Z,101679.00
2022-08-09T07:16:41.708Z,101686.00
2022-08-09T07:19:15.835Z,101678.00
2022-08-09T07:21:57.899Z,101685.00
2022-08-09T07:24:40.086Z,101683.00
2022-08-09T07:27:26.805Z,101683.00
2022-08-09T07:30:00.849Z,101682.00
2022-08-09T07:32:33.323Z,101687.00
2022-08-09T07:35:08.049Z,101692.00
2022-08-09T07:37:44.546Z,101688.00
2022-08-09T07:40:20.761Z,101691.00
2022-08-09T07:43:03.947Z,101692.00
2022-08-09T07:45:42.881Z,101688.00
2022-08-09T07:48:25.678Z,101686.00
2022-08-09T07:51:09.935Z,101690.00
2022-08-09T07:54:05.190Z,101686.00
2022-08-09T07:56:36.973Z,101680.00
2022-08-09T07:59:16.019Z,101686.00
2022-08-09T08:02:01.236Z,101689.00
2022-08-09T08:04:32.330Z,101685.00
2022-08-09T08:07:15.417Z,101682.00
2022-08-09T08:10:04.558Z,101686.00
2022-08-09T08:12:42.439Z,101696.00
2022-08-09T08:15:14.430Z,101696.00
2022-08-09T08:17:54.927Z,101699.00
2022-08-09T08:20:32.792Z,101692.00
2022-08-09T08:23:16.868Z,101687.00
2022-08-09T08:25:50.176Z,101689.00
2022-08-09T08:28:35.096Z,101688.00
2022-08-09T08:31:10.642Z,101693.00
2022-08-09T08:33:53.081Z,101698.00
2022-08-09T08:36:28.860Z,101696.00
2022-08-09T08:38:58.434Z,101702.00
2022-08-09T08:41:42.099Z,101699.00
2022-08-09T08:44:27.191Z,101696.00
2022-08-09T08:47:02.250Z,101692.00
2022-08-09T08:49:47.250Z,101693.00
2022-08-09T08:55:23.137Z,101689.00
2022-08-09T08:57:57.326Z,101689.00
2022-08-09T09:00:30.467Z,101692.00
2022-08-09T09:03:08.357Z,101696.00
2022-08-09T09:06:00.149Z,101701.00
2022-08-09T09:08:38.158Z,101697.00
2022-08-09T09:11:13.866Z,101697.00
2022-08-09T09:13:56.328Z,101700.00
2022-08-09T09:16:33.916Z,101704.00
2022-08-09T09:19:40.674Z,101712.00
2022-08-09T09:22:11.483Z,101707.00
2022-08-09T09:24:44.017Z,101710.00
2022-08-09T09:28:03.748Z,101706.00
2022-08-09T09:30:39.979Z,101705.00
2022-08-09T09:33:15.447Z,101701.00
2022-08-09T09:36:02.679Z,101705.00
2022-08-09T09:38:52.621Z,101693.00
2022-08-09T09:41:28.049Z,101693.00
2022-08-09T09:44:11.927Z,101704.00
2022-08-09T09:46:50.773Z,101705.00
2022-08-09T09:49:32.257Z,101702.00
2022-08-09T09:52:35.687Z,101708.00
2022-08-09T09:55:27.524Z,101709.00
2022-08-09T09:58:15.543Z,101712.00
2022-08-09T10:01:03.218Z,101714.00
2022-08-09T10:03:39.709Z,101711.00
2022-08-09T10:06:07.989Z,101710.00
2022-08-09T10:08:44.268Z,101713.00
2022-08-09T10:12:01.277Z,101712.00
2022-08-09T10:14:33.394Z,101706.00
2022-08-09T10:17:39.554Z,101708.00
2022-08-09T10:20:04.251Z,101704.00
2022-08-09T10:22:41.076Z,101716.00
2022-08-09T10:25:14.226Z,101709.00
2022-08-09T10:27:57.845Z,101712.00
2022-08-09T10:32:03.835Z,101708.00
2022-08-09T10:34:07.862Z,101706.00
2022-08-09T10:36:11.628Z,101700.00
2022-08-09T10:38:57.308Z,101695.00
2022-08-09T10:41:28.360Z,101712.00
2022-08-09T10:44:00.960Z,101708.00
2022-08-09T10:47:04.030Z,101705.00
2022-08-09T10:50:04.673Z,101693.00
2022-08-09T10:53:26.859Z,101692.00
2022-08-09T10:56:24.102Z,101693.00
2022-08-09T10:58:55.951Z,101694.00
2022-08-09T11:03:13.616Z,101697.00
2022-08-09T11:04:30.777Z,101688.00
2022-08-09T11:07:00.030Z,101690.00
2022-08-09T11:09:47.883Z,101683.00
2022-08-09T11:12:18.902Z,101693.00
2022-08-09T11:15:19.087Z,101688.00
2022-08-09T11:17:53.675Z,101693.00
2022-08-09T11:20:50.098Z,101683.00
2022-08-09T11:23:23.789Z,101695.00
2022-08-09T11:25:54.881Z,101691.00
2022-08-09T11:28:30.729Z,101685.00
2022-08-09T11:31:50.316Z,101690.00
2022-08-09T11:34:51.621Z,101687.00
2022-08-09T11:37:40.730Z,101687.00
2022-08-09T11:40:13.088Z,101689.00
2022-08-09T11:42:51.739Z,101690.00
2022-08-09T11:45:42.219Z,101687.00
2022-08-09T11:48:26.976Z,101691.00
2022-08-09T11:52:48.842Z,101692.00
2022-08-09T11:54:01.210Z,101688.00
2022-08-09T11:56:41.752Z,101695.00
2022-08-09T11:59:12.418Z,101693.00
2022-08-09T12:02:34.657Z,101696.00
2022-08-09T12:04:38.076Z,101682.00
2022-08-09T12:07:08.341Z,101684.00
2022-08-09T12:09:36.662Z,101677.00
2022-08-09T12:12:28.825Z,101676.00
2022-08-09T12:15:07.642Z,101678.00
2022-08-09T12:17:44.454Z,101668.00
2022-08-09T12:20:34.608Z,101670.00
2022-08-09T12:23:04.758Z,101672.00
2022-08-09T12:25:37.563Z,101668.00
2022-08-09T12:28:58.183Z,101663.00
2022-08-09T12:31:59.181Z,101652.00
2022-08-09T12:34:38.805Z,101640.00
2022-08-09T12:37:23.507Z,101649.00
2022-08-09T12:40:08.870Z,101645.00
2022-08-09T12:42:37.483Z,101641.00
2022-08-09T12:45:32.251Z,101641.00
2022-08-09T12:47:54.754Z,101644.00
2022-08-09T12:50:23.763Z,101649.00
2022-08-09T12:53:18.082Z,101647.00
2022-08-09T12:56:14.738Z,101648.00
2022-08-09T12:58:28.904Z,101642.00
2022-08-09T13:00:57.661Z,101639.00
2022-08-09T13:03:57.097Z,101637.00
2022-08-09T13:06:36.669Z,101637.00
2022-08-09T13:09:25.974Z,101631.00
2022-08-09T13:12:06.437Z,101630.00
2022-08-09T13:14:43.717Z,101627.00
2022-08-09T13:17:44.056Z,101621.00
2022-08-09T13:20:16.070Z,101629.00
2022-08-09T13:23:05.385Z,101616.00
2022-08-09T13:25:54.846Z,101619.00
2022-08-09T13:28:34.117Z,101622.00
2022-08-09T13:32:17.994Z,101615.00
2022-08-09T13:33:54.170Z,101613.00
2022-08-09T13:36:40.489Z,101614.00
2022-08-09T13:41:17.736Z,101607.00
2022-08-09T13:42:12.985Z,101615.00
2022-08-09T13:44:43.211Z,101617.00
2022-08-09T13:47:33.000Z,101608.00
2022-08-09T13:50:12.504Z,101614.00
2022-08-09T13:52:42.225Z,101615.00
2022-08-09T13:55:13.432Z,101617.00
2022-08-09T13:57:55.878Z,101617.00
2022-08-09T14:00:28.550Z,101616.00
2022-08-09T14:03:16.821Z,101617.00
2022-08-09T14:05:58.821Z,101620.00
2022-08-09T14:08:33.011Z,101629.00
2022-08-09T14:11:01.338Z,101620.00
2022-08-09T14:14:23.195Z,101615.00
2022-08-09T14:16:28.197Z,101617.00
2022-08-09T14:18:58.466Z,101619.00
2022-08-09T14:21:29.136Z,101612.00
2022-08-09T14:24:00.999Z,101615.00
2022-08-09T14:26:34.178Z,101607.00
2022-08-09T14:29:07.382Z,101606.00
2022-08-09T14:31:50.175Z,101607.00
2022-08-09T14:34:32.392Z,101604.00
2022-08-09T14:37:07.560Z,101597.00
2022-08-09T14:39:46.815Z,101598.00
2022-08-09T14:42:31.647Z,101604.00
2022-08-09T14:46:46.037Z,101597.00
2022-08-09T14:48:02.102Z,101595.00
2022-08-09T14:50:34.550Z,101596.00
2022-08-09T14:53:12.058Z,101600.00
2022-08-09T14:55:47.846Z,101592.00
2022-08-09T14:58:18.689Z,101593.00
2022-08-09T15:00:48.207Z,101593.00
2022-08-09T15:03:20.137Z,101595.00
2022-08-09T15:05:50.302Z,101602.00
2022-08-09T15:08:23.846Z,101600.00
2022-08-09T15:11:01.092Z,101607.00
2022-08-09T15:13:48.305Z,101604.00
2022-08-09T15:16:17.790Z,101596.00
2022-08-09T15:18:48.989Z,101592.00
2022-08-09T15:21:56.132Z,101589.00
2022-08-09T15:24:12.555Z,101592.00
2022-08-09T15:26:46.378Z,101588.00
2022-08-09T15:30:56.218Z,101590.00
2022-08-09T15:32:04.113Z,101598.00
2022-08-09T15:34:35.384Z,101595.00
2022-08-09T15:37:38.000Z,101587.00
2022-08-09T15:40:16.028Z,101584.00
2022-08-09T15:42:50.722Z,101586.00
2022-08-09T15:45:29.740Z,101582.00
2022-08-09T15:48:05.480Z,101578.00
2022-08-09T15:50:46.110Z,101576.00
2022-08-09T15:53:18.843Z,101580.00
2022-08-09T15:56:21.487Z,101570.00
2022-08-09T15:58:49.882Z,101575.00
2022-08-09T16:01:18.890Z,101565.00
2022-08-09T16:03:47.170Z,101575.00
2022-08-09T16:06:32.661Z,101573.00
2022-08-09T16:09:05.788Z,101574.00
2022-08-09T16:11:34.081Z,101570.00
2022-08-09T16:14:06.831Z,101567.00
2022-08-09T16:16:37.908Z,101577.00
2022-08-09T16:19:08.041Z,101565.00
2022-08-09T16:21:38.426Z,101561.00
2022-08-09T16:24:13.022Z,101568.00
2022-08-09T16:26:55.200Z,101569.00
2022-08-09T16:29:37.671Z,101565.00
2022-08-09T16:32:33.451Z,101568.00
2022-08-09T16:35:00.006Z,101574.00
2022-08-09T16:37:54.550Z,101569.00
2022-08-09T16:40:29.727Z,101570.00
2022-08-09T16:43:07.993Z,101575.00
2022-08-09T16:45:43.786Z,101570.00
2022-08-09T16:48:42.025Z,101565.00
2022-08-09T16:51:08.374Z,101568.00
2022-08-09T16:54:25.135Z,101567.00
2022-08-09T16:56:33.816Z,101561.00
2022-08-09T16:59:06.507Z,101564.00
2022-08-09T17:01:38.797Z,101566.00
2022-08-09T17:04:06.884Z,101575.00
2022-08-09T17:08:41.302Z,101573.00
2022-08-09T17:09:44.549Z,101565.00
2022-08-09T17:12:10.279Z,101569.00
2022-08-09T17:14:37.641Z,101570.00
2022-08-09T17:17:17.253Z,101576.00
2022-08-09T17:20:30.413Z,101576.00
2022-08-09T17:22:49.924Z,101578.00
2022-08-09T17:25:21.982Z,101577.00
2022-08-09T17:27:55.657Z,101576.00
2022-08-09T17:30:29.096Z,101577.00
2022-08-09T17:33:05.619Z,101578.00
2022-08-09T17:35:50.757Z,101576.00
2022-08-09T17:38:30.789Z,101577.00
2022-08-09T17:41:03.293Z,101571.00
2022-08-09T17:43:35.801Z,101576.00
2022-08-09T17:46:09.757Z,101570.00
2022-08-09T17:48:52.169Z,101572.00
2022-08-09T17:51:22.023Z,101581.00
2022-08-09T17:53:55.071Z,101580.00
2022-08-09T17:56:28.907Z,101570.00
2022-08-09T17:59:03.287Z,101575.00
2022-08-09T18:01:57.951Z,101574.00
2022-08-09T18:04:25.713Z,101571.00
2022-08-09T18:06:55.285Z,101564.00
2022-08-09T18:09:40.431Z,101573.00
2022-08-09T18:12:20.066Z,101576.00
2022-08-09T18:14:55.012Z,101578.00
2022-08-09T18:18:03.308Z,101582.00
2022-08-09T18:20:56.855Z,101579.00
2022-08-09T18:23:07.185Z,101576.00
2022-08-09T18:25:50.509Z,101579.00
2022-08-09T18:30:35.021Z,101581.00
2022-08-09T18:31:08.429Z,101588.00
2022-08-09T18:33:36.529Z,101589.00
2022-08-09T18:36:04.539Z,101590.00
2022-08-09T18:38:32.196Z,101592.00
2022-08-09T18:40:59.929Z,101594.00
2022-08-09T18:43:28.270Z,101600.00
2022-08-09T18:46:49.768Z,101597.00
2022-08-09T18:48:52.640Z,101600.00
2022-08-09T18:51:20.749Z,101598.00
2022-08-09T18:54:08.634Z,101604.00
2022-08-09T18:56:45.544Z,101606.00
2022-08-09T18:59:22.642Z,101608.00
2022-08-09T19:01:55.334Z,101613.00
2022-08-09T19:04:34.653Z,101618.00
2022-08-09T19:07:02.932Z,101626.00
2022-08-09T19:10:13.265Z,101624.00
2022-08-09T19:12:21.713Z,101632.00
2022-08-09T19:14:51.882Z,101627.00
2022-08-09T19:17:21.026Z,101632.00
2022-08-09T19:19:49.280Z,101632.00
2022-08-09T19:22:26.627Z,101635.00
2022-08-09T19:25:11.557Z,101636.00
2022-08-09T19:27:42.392Z,101635.00
2022-08-09T19:30:22.911Z,101636.00
2022-08-09T19:32:56.057Z,101634.00
2022-08-09T19:35:26.721Z,101635.00
2022-08-09T19:37:57.700Z,101634.00
2022-08-09T19:40:34.220Z,101638.00
2022-08-09T19:43:05.215Z,101635.00
2022-08-09T19:45:40.298Z,101640.00
2022-08-09T19:48:10.733Z,101642.00
2022-08-09T19:50:50.273Z,101643.00
2022-08-09T19:53:20.677Z,101638.00
2022-08-09T19:56:02.470Z,101634.00
2022-08-09T19:58:34.101Z,101638.00
2022-08-09T20:01:02.057Z,101647.00
2022-08-09T20:04:18.421Z,101640.00
2022-08-09T20:06:22.937Z,101651.00
2022-08-09T20:08:56.538Z,101642.00
2022-08-09T20:11:27.157Z,101642.00
2022-08-09T20:14:15.260Z,101641.00
2022-08-09T20:16:54.168Z,101637.00
2022-08-09T20:19:48.455Z,101642.00
2022-08-09T20:22:14.157Z,101638.00
2022-08-09T20:24:43.106Z,101642.00
2022-08-09T20:27:22.311Z,101635.00
2022-08-09T20:29:50.046Z,101640.00
2022-08-09T20:32:30.414Z,101638.00
2022-08-09T20:35:01.674Z,101642.00
2022-08-09T20:37:37.812Z,101634.00
2022-08-09T20:40:26.571Z,101639.00
2022-08-09T20:43:00.087Z,101634.00
2022-08-09T20:46:00.611Z,101631.00
2022-08-09T20:48:32.715Z,101639.00
2022-08-09T20:51:02.915Z,101642.00
2022-08-09T20:53:37.678Z,101633.00
2022-08-09T20:56:21.202Z,101640.00
2022-08-09T20:58:54.598Z,101636.00
2022-08-09T21:01:34.034Z,101632.00
2022-08-09T21:05:54.868Z,101633.00
2022-08-09T21:07:12.043Z,101631.00
2022-08-09T21:09:56.550Z,101629.00
2022-08-09T21:12:32.315Z,101638.00
2022-08-09T21:15:03.003Z,101637.00
2022-08-09T21:18:11.062Z,101638.00
2022-08-09T21:20:25.782Z,101633.00
2022-08-09T21:22:54.836Z,101633.00
2022-08-09T21:25:44.015Z,101634.00
2022-08-09T21:28:36.517Z,101644.00
2022-08-09T21:31:17.556Z,101638.00
2022-08-09T21:33:52.776Z,101633.00
2022-08-09T21:36:28.852Z,101632.00
2022-08-09T21:38:59.612Z,101640.00
2022-08-09T21:42:03.445Z,101645.00
2022-08-09T21:44:34.006Z,101642.00
2022-08-09T21:47:17.556Z,101640.00
2022-08-09T21:49:48.320Z,101645.00
2022-08-09T21:52:20.879Z,101632.00
2022-08-09T21:55:03.615Z,101645.00
2022-08-09T21:57:58.741Z,101642.00
2022-08-09T22:00:33.865Z,101643.00
2022-08-09T22:03:19.179Z,101643.00
2022-08-09T22:05:54.105Z,101646.00
2022-08-09T22:08:25.860Z,101639.00
2022-08-09T22:11:49.237Z,101641.00
2022-08-09T22:13:43.971Z,101640.00
2022-08-09T22:16:12.247Z,101650.00
2022-08-09T22:18:52.204Z,101654.00
2022-08-09T22:21:27.455Z,101653.00
2022-08-09T22:24:17.239Z,101660.00
2022-08-09T22:26:51.432Z,101657.00
2022-08-09T22:29:28.845Z,101662.00
2022-08-09T22:32:07.091Z,101659.00
2022-08-09T22:35:02.489Z,101660.00
2022-08-09T22:37:40.458Z,101668.00
2022-08-09T22:40:19.966Z,101666.00
2022-08-09T22:42:48.255Z,101669.00
2022-08-09T22:48:10.618Z,101670.00
2022-08-09T22:48:11.358Z,101666.00
2022-08-09T22:50:52.847Z,101666.00
2022-08-09T22:53:20.999Z,101667.00
2022-08-09T22:56:29.999Z,101671.00
2022-08-09T22:58:40.780Z,101681.00
2022-08-09T23:01:10.061Z,101667.00
2022-08-09T23:04:03.935Z,101668.00
2022-08-09T23:06:35.689Z,101672.00
2022-08-09T23:09:06.506Z,101674.00
2022-08-09T23:11:34.238Z,101676.00
2022-08-09T23:14:03.205Z,101678.00
2022-08-09T23:16:32.006Z,101679.00
2022-08-09T23:18:59.940Z,101675.00
2022-08-09T23:21:32.760Z,101677.00
2022-08-09T23:24:06.574Z,101680.00
2022-08-09T23:26:38.985Z,101682.00
2022-08-09T23:29:11.641Z,101673.00
2022-08-09T23:31:40.234Z,101682.00
2022-08-09T23:34:08.347Z,101682.00
2022-08-09T23:36:36.951Z,101669.00
2022-08-09T23:39:07.236Z,101676.00
2022-08-09T23:41:35.747Z,101675.00
2022-08-09T23:44:04.261Z,101668.00
2022-08-09T23:46:32.853Z,101675.00
2022-08-09T23:49:01.234Z,101680.00
2022-08-09T23:51:32.305Z,101677.00
2022-08-09T23:54:02.434Z,101671.00
2022-08-09T23:56:53.378Z,101667.00
2022-08-09T23:59:24.197Z,101664.00
